sensor_id;sensor_type;location;lat;lon;timestamp;P1;durP1;ratioP1;P2;durP2;ratioP2
53267;SDS011;39156;51.176;6.738;2023-03-01T00:01:16;47.90;;;45.10;;
53267;SDS011;39156;51.176;6.738;2023-03-01T00:03:45;48.65;;;45.75;;
53267;SDS011;39156;51.176;6.738;2023-03-01T00:06:11;48.40;;;45.60;;
53267;SDS011;39156;51.176;6.738;2023-03-01T00:08:37;49.38;;;46.58;;
53267;SDS011;39156;51.176;6.738;2023-03-01T00:13:35;49.85;;;46.85;;
53267;SDS011;39156;51.176;6.738;2023-03-01T00:16:02;49.35;;;46.20;;
53267;SDS011;39156;51.176;6.738;2023-03-01T00:18:30;49.20;;;46.30;;
53267;SDS011;39156;51.176;6.738;2023-03-01T00:20:56;48.83;;;45.97;;
53267;SDS011;39156;51.176;6.738;2023-03-01T00:23:22;49.15;;;46.30;;
53267;SDS011;39156;51.176;6.738;2023-03-01T00:25:48;49.30;;;46.45;;
53267;SDS011;39156;51.176;6.738;2023-03-01T00:28:15;49.10;;;46.28;;
53267;SDS011;39156;51.176;6.738;2023-03-01T00:30:41;49.40;;;46.47;;
53267;SDS011;39156;51.176;6.738;2023-03-01T00:33:06;49.05;;;46.25;;
53267;SDS011;39156;51.176;6.738;2023-03-01T00:35:32;50.65;;;47.40;;
53267;SDS011;39156;51.176;6.738;2023-03-01T00:37:58;49.10;;;46.30;;
53267;SDS011;39156;51.176;6.738;2023-03-01T00:40:25;50.80;;;46.97;;
53267;SDS011;39156;51.176;6.738;2023-03-01T00:42:53;49.45;;;46.53;;
53267;SDS011;39156;51.176;6.738;2023-03-01T00:45:19;49.35;;;46.40;;
53267;SDS011;39156;51.176;6.738;2023-03-01T00:47:45;49.50;;;46.60;;
53267;SDS011;39156;51.176;6.738;2023-03-01T00:50:10;51.25;;;48.20;;
53267;SDS011;39156;51.176;6.738;2023-03-01T00:52:36;50.08;;;47.10;;
53267;SDS011;39156;51.176;6.738;2023-03-01T00:55:03;50.10;;;47.15;;
53267;SDS011;39156;51.176;6.738;2023-03-01T00:57:29;50.40;;;47.35;;
53267;SDS011;39156;51.176;6.738;2023-03-01T00:59:56;48.85;;;46.13;;
53267;SDS011;39156;51.176;6.738;2023-03-01T01:02:21;48.85;;;45.92;;
53267;SDS011;39156;51.176;6.738;2023-03-01T01:04:48;49.72;;;46.60;;
53267;SDS011;39156;51.176;6.738;2023-03-01T01:07:14;49.90;;;47.00;;
53267;SDS011;39156;51.176;6.738;2023-03-01T01:09:40;50.17;;;47.10;;
53267;SDS011;39156;51.176;6.738;2023-03-01T01:12:06;49.65;;;46.78;;
53267;SDS011;39156;51.176;6.738;2023-03-01T01:14:32;50.40;;;47.30;;
53267;SDS011;39156;51.176;6.738;2023-03-01T01:16:58;50.58;;;47.60;;
53267;SDS011;39156;51.176;6.738;2023-03-01T01:19:24;50.67;;;47.47;;
53267;SDS011;39156;51.176;6.738;2023-03-01T01:21:50;50.95;;;47.97;;
53267;SDS011;39156;51.176;6.738;2023-03-01T01:24:17;49.83;;;46.92;;
53267;SDS011;39156;51.176;6.738;2023-03-01T01:26:43;50.38;;;47.38;;
53267;SDS011;39156;51.176;6.738;2023-03-01T01:29:10;49.47;;;46.58;;
53267;SDS011;39156;51.176;6.738;2023-03-01T01:31:37;51.35;;;48.13;;
53267;SDS011;39156;51.176;6.738;2023-03-01T01:34:06;50.50;;;47.50;;
53267;SDS011;39156;51.176;6.738;2023-03-01T01:36:35;50.35;;;47.38;;
53267;SDS011;39156;51.176;6.738;2023-03-01T01:39:00;50.17;;;47.30;;
53267;SDS011;39156;51.176;6.738;2023-03-01T01:41:27;49.47;;;46.42;;
53267;SDS011;39156;51.176;6.738;2023-03-01T01:49:43;50.33;;;47.40;;
53267;SDS011;39156;51.176;6.738;2023-03-01T01:52:32;51.15;;;48.15;;
53267;SDS011;39156;51.176;6.738;2023-03-01T01:55:08;51.70;;;48.58;;
53267;SDS011;39156;51.176;6.738;2023-03-01T01:57:58;50.78;;;47.88;;
53267;SDS011;39156;51.176;6.738;2023-03-01T02:00:29;50.80;;;47.67;;
53267;SDS011;39156;51.176;6.738;2023-03-01T02:02:56;50.55;;;47.35;;
53267;SDS011;39156;51.176;6.738;2023-03-01T02:08:19;50.95;;;48.05;;
53267;SDS011;39156;51.176;6.738;2023-03-01T02:10:48;51.47;;;48.38;;
53267;SDS011;39156;51.176;6.738;2023-03-01T02:13:15;53.15;;;49.85;;
53267;SDS011;39156;51.176;6.738;2023-03-01T02:15:41;52.17;;;49.08;;
53267;SDS011;39156;51.176;6.738;2023-03-01T02:18:09;51.15;;;48.05;;
53267;SDS011;39156;51.176;6.738;2023-03-01T02:23:14;52.22;;;48.42;;
53267;SDS011;39156;51.176;6.738;2023-03-01T02:30:43;52.10;;;48.88;;
53267;SDS011;39156;51.176;6.738;2023-03-01T02:33:31;51.45;;;48.33;;
53267;SDS011;39156;51.176;6.738;2023-03-01T02:36:01;51.70;;;48.50;;
53267;SDS011;39156;51.176;6.738;2023-03-01T02:38:31;54.35;;;51.15;;
53267;SDS011;39156;51.176;6.738;2023-03-01T02:40:57;51.47;;;48.47;;
53267;SDS011;39156;51.176;6.738;2023-03-01T02:43:25;52.40;;;49.30;;
53267;SDS011;39156;51.176;6.738;2023-03-01T02:46:02;51.90;;;48.60;;
53267;SDS011;39156;51.176;6.738;2023-03-01T02:48:40;51.60;;;48.50;;
53267;SDS011;39156;51.176;6.738;2023-03-01T02:56:40;53.33;;;50.03;;
53267;SDS011;39156;51.176;6.738;2023-03-01T02:59:08;52.13;;;49.03;;
53267;SDS011;39156;51.176;6.738;2023-03-01T03:01:35;53.83;;;50.65;;
53267;SDS011;39156;51.176;6.738;2023-03-01T03:04:07;52.75;;;49.55;;
53267;SDS011;39156;51.176;6.738;2023-03-01T03:06:36;52.22;;;49.13;;
53267;SDS011;39156;51.176;6.738;2023-03-01T03:09:02;53.75;;;50.65;;
53267;SDS011;39156;51.176;6.738;2023-03-01T03:11:29;53.03;;;49.83;;
53267;SDS011;39156;51.176;6.738;2023-03-01T03:13:55;54.17;;;50.65;;
53267;SDS011;39156;51.176;6.738;2023-03-01T03:16:22;53.05;;;49.95;;
53267;SDS011;39156;51.176;6.738;2023-03-01T03:18:48;53.22;;;50.03;;
53267;SDS011;39156;51.176;6.738;2023-03-01T03:21:13;53.42;;;50.03;;
53267;SDS011;39156;51.176;6.738;2023-03-01T03:23:40;53.60;;;50.30;;
53267;SDS011;39156;51.176;6.738;2023-03-01T03:26:05;53.58;;;50.45;;
53267;SDS011;39156;51.176;6.738;2023-03-01T03:28:32;54.10;;;50.70;;
53267;SDS011;39156;51.176;6.738;2023-03-01T03:30:59;53.90;;;50.60;;
53267;SDS011;39156;51.176;6.738;2023-03-01T03:33:29;53.40;;;50.25;;
53267;SDS011;39156;51.176;6.738;2023-03-01T03:35:55;53.58;;;50.28;;
53267;SDS011;39156;51.176;6.738;2023-03-01T03:38:21;53.38;;;50.17;;
53267;SDS011;39156;51.176;6.738;2023-03-01T03:43:20;54.45;;;50.95;;
53267;SDS011;39156;51.176;6.738;2023-03-01T03:45:48;53.67;;;50.38;;
53267;SDS011;39156;51.176;6.738;2023-03-01T03:48:16;53.78;;;50.58;;
53267;SDS011;39156;51.176;6.738;2023-03-01T03:50:47;55.00;;;51.55;;
53267;SDS011;39156;51.176;6.738;2023-03-01T03:53:18;55.08;;;51.58;;
53267;SDS011;39156;51.176;6.738;2023-03-01T03:55:44;55.67;;;51.97;;
53267;SDS011;39156;51.176;6.738;2023-03-01T03:58:14;55.60;;;52.10;;
53267;SDS011;39156;51.176;6.738;2023-03-01T04:00:41;57.38;;;53.75;;
53267;SDS011;39156;51.176;6.738;2023-03-01T04:03:09;57.22;;;52.83;;
53267;SDS011;39156;51.176;6.738;2023-03-01T04:05:37;55.38;;;51.80;;
53267;SDS011;39156;51.176;6.738;2023-03-01T04:08:04;55.67;;;52.17;;
53267;SDS011;39156;51.176;6.738;2023-03-01T04:10:35;54.38;;;50.97;;
53267;SDS011;39156;51.176;6.738;2023-03-01T04:13:08;55.13;;;51.63;;
53267;SDS011;39156;51.176;6.738;2023-03-01T04:15:37;55.53;;;51.92;;
53267;SDS011;39156;51.176;6.738;2023-03-01T04:18:04;54.73;;;51.20;;
53267;SDS011;39156;51.176;6.738;2023-03-01T04:20:31;55.53;;;51.92;;
53267;SDS011;39156;51.176;6.738;2023-03-01T04:23:04;56.20;;;52.85;;
53267;SDS011;39156;51.176;6.738;2023-03-01T04:25:38;55.15;;;51.65;;
53267;SDS011;39156;51.176;6.738;2023-03-01T04:28:05;56.40;;;52.80;;
53267;SDS011;39156;51.176;6.738;2023-03-01T04:30:32;55.72;;;52.28;;
53267;SDS011;39156;51.176;6.738;2023-03-01T04:33:01;54.92;;;51.72;;
53267;SDS011;39156;51.176;6.738;2023-03-01T04:35:28;55.38;;;51.92;;
53267;SDS011;39156;51.176;6.738;2023-03-01T04:37:55;55.08;;;51.70;;
53267;SDS011;39156;51.176;6.738;2023-03-01T04:40:21;56.50;;;52.80;;
53267;SDS011;39156;51.176;6.738;2023-03-01T04:42:47;56.55;;;52.97;;
53267;SDS011;39156;51.176;6.738;2023-03-01T04:45:13;56.33;;;52.72;;
53267;SDS011;39156;51.176;6.738;2023-03-01T04:47:39;56.35;;;52.95;;
53267;SDS011;39156;51.176;6.738;2023-03-01T04:52:32;56.58;;;52.78;;
53267;SDS011;39156;51.176;6.738;2023-03-01T04:54:58;55.50;;;52.00;;
53267;SDS011;39156;51.176;6.738;2023-03-01T04:57:23;54.55;;;51.22;;
53267;SDS011;39156;51.176;6.738;2023-03-01T04:59:49;55.22;;;51.78;;
53267;SDS011;39156;51.176;6.738;2023-03-01T05:02:15;56.72;;;53.13;;
53267;SDS011;39156;51.176;6.738;2023-03-01T05:04:41;55.72;;;52.13;;
53267;SDS011;39156;51.176;6.738;2023-03-01T05:07:06;55.20;;;51.80;;
53267;SDS011;39156;51.176;6.738;2023-03-01T05:09:32;55.38;;;51.90;;
53267;SDS011;39156;51.176;6.738;2023-03-01T05:15:43;55.72;;;52.42;;
53267;SDS011;39156;51.176;6.738;2023-03-01T05:18:09;55.47;;;52.08;;
53267;SDS011;39156;51.176;6.738;2023-03-01T05:20:36;57.63;;;54.10;;
53267;SDS011;39156;51.176;6.738;2023-03-01T05:23:03;57.33;;;53.50;;
53267;SDS011;39156;51.176;6.738;2023-03-01T05:25:30;57.47;;;53.78;;
53267;SDS011;39156;51.176;6.738;2023-03-01T05:27:59;55.60;;;52.08;;
53267;SDS011;39156;51.176;6.738;2023-03-01T05:30:34;55.78;;;52.47;;
53267;SDS011;39156;51.176;6.738;2023-03-01T05:33:00;57.92;;;54.13;;
53267;SDS011;39156;51.176;6.738;2023-03-01T05:35:26;56.90;;;53.25;;
53267;SDS011;39156;51.176;6.738;2023-03-01T05:37:52;57.63;;;53.97;;
53267;SDS011;39156;51.176;6.738;2023-03-01T05:40:19;56.92;;;53.33;;
53267;SDS011;39156;51.176;6.738;2023-03-01T05:42:48;57.53;;;54.08;;
53267;SDS011;39156;51.176;6.738;2023-03-01T05:45:17;57.25;;;53.72;;
53267;SDS011;39156;51.176;6.738;2023-03-01T05:47:43;57.53;;;54.00;;
53267;SDS011;39156;51.176;6.738;2023-03-01T05:50:12;56.90;;;53.30;;
53267;SDS011;39156;51.176;6.738;2023-03-01T05:52:47;60.08;;;54.83;;
53267;SDS011;39156;51.176;6.738;2023-03-01T05:55:16;57.40;;;53.63;;
53267;SDS011;39156;51.176;6.738;2023-03-01T05:57:44;58.45;;;54.38;;
53267;SDS011;39156;51.176;6.738;2023-03-01T06:00:10;57.45;;;53.83;;
53267;SDS011;39156;51.176;6.738;2023-03-01T06:02:38;57.30;;;53.80;;
53267;SDS011;39156;51.176;6.738;2023-03-01T06:05:05;57.42;;;53.80;;
53267;SDS011;39156;51.176;6.738;2023-03-01T06:07:33;57.15;;;53.45;;
53267;SDS011;39156;51.176;6.738;2023-03-01T06:10:00;56.67;;;53.05;;
53267;SDS011;39156;51.176;6.738;2023-03-01T06:12:29;57.00;;;53.40;;
53267;SDS011;39156;51.176;6.738;2023-03-01T06:14:59;56.47;;;52.88;;
53267;SDS011;39156;51.176;6.738;2023-03-01T06:17:26;57.10;;;53.50;;
53267;SDS011;39156;51.176;6.738;2023-03-01T06:19:56;56.08;;;52.47;;
53267;SDS011;39156;51.176;6.738;2023-03-01T06:22:22;57.58;;;53.88;;
53267;SDS011;39156;51.176;6.738;2023-03-01T06:24:47;57.33;;;53.75;;
53267;SDS011;39156;51.176;6.738;2023-03-01T06:27:13;56.75;;;53.17;;
53267;SDS011;39156;51.176;6.738;2023-03-01T06:29:39;58.08;;;54.15;;
53267;SDS011;39156;51.176;6.738;2023-03-01T06:32:05;55.92;;;52.35;;
53267;SDS011;39156;51.176;6.738;2023-03-01T06:34:30;57.30;;;53.55;;
53267;SDS011;39156;51.176;6.738;2023-03-01T06:36:57;56.92;;;53.33;;
53267;SDS011;39156;51.176;6.738;2023-03-01T06:39:22;57.78;;;54.17;;
53267;SDS011;39156;51.176;6.738;2023-03-01T06:41:48;57.13;;;53.47;;
53267;SDS011;39156;51.176;6.738;2023-03-01T06:44:14;57.10;;;53.33;;
53267;SDS011;39156;51.176;6.738;2023-03-01T06:46:39;55.38;;;51.97;;
53267;SDS011;39156;51.176;6.738;2023-03-01T06:49:05;56.75;;;53.25;;
53267;SDS011;39156;51.176;6.738;2023-03-01T06:51:34;55.97;;;52.40;;
53267;SDS011;39156;51.176;6.738;2023-03-01T06:54:03;56.65;;;53.05;;
53267;SDS011;39156;51.176;6.738;2023-03-01T06:56:32;55.72;;;52.05;;
53267;SDS011;39156;51.176;6.738;2023-03-01T06:59:04;55.03;;;51.45;;
53267;SDS011;39156;51.176;6.738;2023-03-01T07:01:30;56.55;;;52.58;;
53267;SDS011;39156;51.176;6.738;2023-03-01T07:03:56;56.17;;;52.58;;
53267;SDS011;39156;51.176;6.738;2023-03-01T07:06:22;58.15;;;54.45;;
53267;SDS011;39156;51.176;6.738;2023-03-01T07:08:48;55.15;;;51.65;;
53267;SDS011;39156;51.176;6.738;2023-03-01T07:11:14;54.35;;;50.95;;
53267;SDS011;39156;51.176;6.738;2023-03-01T07:13:53;56.60;;;52.80;;
53267;SDS011;39156;51.176;6.738;2023-03-01T07:16:25;56.08;;;52.17;;
53267;SDS011;39156;51.176;6.738;2023-03-01T07:18:50;55.25;;;51.65;;
53267;SDS011;39156;51.176;6.738;2023-03-01T07:21:16;56.72;;;53.03;;
53267;SDS011;39156;51.176;6.738;2023-03-01T07:23:42;56.38;;;52.58;;
53267;SDS011;39156;51.176;6.738;2023-03-01T07:26:07;55.80;;;52.03;;
53267;SDS011;39156;51.176;6.738;2023-03-01T07:28:33;56.30;;;52.70;;
53267;SDS011;39156;51.176;6.738;2023-03-01T07:31:03;56.42;;;52.83;;
53267;SDS011;39156;51.176;6.738;2023-03-01T07:33:32;56.28;;;52.63;;
53267;SDS011;39156;51.176;6.738;2023-03-01T07:35:58;57.30;;;53.50;;
53267;SDS011;39156;51.176;6.738;2023-03-01T07:38:26;55.80;;;52.10;;
53267;SDS011;39156;51.176;6.738;2023-03-01T07:43:22;56.25;;;52.58;;
53267;SDS011;39156;51.176;6.738;2023-03-01T07:45:48;54.97;;;51.30;;
53267;SDS011;39156;51.176;6.738;2023-03-01T07:48:14;56.20;;;52.35;;
53267;SDS011;39156;51.176;6.738;2023-03-01T07:50:40;56.05;;;52.42;;
53267;SDS011;39156;51.176;6.738;2023-03-01T07:53:05;55.35;;;51.70;;
53267;SDS011;39156;51.176;6.738;2023-03-01T07:55:31;54.75;;;50.92;;
53267;SDS011;39156;51.176;6.738;2023-03-01T07:57:56;56.03;;;51.80;;
53267;SDS011;39156;51.176;6.738;2023-03-01T08:00:22;53.92;;;50.33;;
53267;SDS011;39156;51.176;6.738;2023-03-01T08:02:48;55.50;;;51.72;;
53267;SDS011;39156;51.176;6.738;2023-03-01T08:05:14;53.78;;;50.22;;
53267;SDS011;39156;51.176;6.738;2023-03-01T08:07:40;53.38;;;49.90;;
53267;SDS011;39156;51.176;6.738;2023-03-01T08:10:05;54.20;;;50.30;;
53267;SDS011;39156;51.176;6.738;2023-03-01T08:12:32;51.75;;;48.50;;
53267;SDS011;39156;51.176;6.738;2023-03-01T08:14:57;49.22;;;45.90;;
53267;SDS011;39156;51.176;6.738;2023-03-01T08:17:23;47.25;;;44.25;;
53267;SDS011;39156;51.176;6.738;2023-03-01T08:19:49;47.97;;;44.70;;
53267;SDS011;39156;51.176;6.738;2023-03-01T08:22:14;46.08;;;43.05;;
53267;SDS011;39156;51.176;6.738;2023-03-01T08:24:40;46.97;;;43.88;;
53267;SDS011;39156;51.176;6.738;2023-03-01T08:27:06;45.88;;;42.97;;
53267;SDS011;39156;51.176;6.738;2023-03-01T08:29:32;46.83;;;43.70;;
53267;SDS011;39156;51.176;6.738;2023-03-01T08:31:58;44.00;;;41.03;;
53267;SDS011;39156;51.176;6.738;2023-03-01T08:34:24;44.30;;;41.30;;
53267;SDS011;39156;51.176;6.738;2023-03-01T08:36:50;44.40;;;40.88;;
53267;SDS011;39156;51.176;6.738;2023-03-01T08:39:17;41.80;;;39.05;;
53267;SDS011;39156;51.176;6.738;2023-03-01T08:41:45;44.50;;;41.55;;
53267;SDS011;39156;51.176;6.738;2023-03-01T08:44:12;43.00;;;40.13;;
53267;SDS011;39156;51.176;6.738;2023-03-01T08:46:41;42.10;;;39.20;;
53267;SDS011;39156;51.176;6.738;2023-03-01T08:49:13;40.97;;;38.20;;
53267;SDS011;39156;51.176;6.738;2023-03-01T08:51:41;40.20;;;37.67;;
53267;SDS011;39156;51.176;6.738;2023-03-01T08:54:12;39.35;;;36.90;;
53267;SDS011;39156;51.176;6.738;2023-03-01T08:56:40;40.00;;;37.47;;
53267;SDS011;39156;51.176;6.738;2023-03-01T08:59:07;40.03;;;37.33;;
53267;SDS011;39156;51.176;6.738;2023-03-01T09:01:33;39.65;;;36.95;;
53267;SDS011;39156;51.176;6.738;2023-03-01T09:03:59;39.10;;;36.43;;
53267;SDS011;39156;51.176;6.738;2023-03-01T09:06:25;40.07;;;37.37;;
53267;SDS011;39156;51.176;6.738;2023-03-01T09:08:50;37.40;;;34.90;;
53267;SDS011;39156;51.176;6.738;2023-03-01T09:11:18;40.83;;;38.03;;
53267;SDS011;39156;51.176;6.738;2023-03-01T09:13:46;40.28;;;37.75;;
53267;SDS011;39156;51.176;6.738;2023-03-01T09:16:14;39.58;;;36.83;;
53267;SDS011;39156;51.176;6.738;2023-03-01T09:18:42;39.53;;;36.95;;
53267;SDS011;39156;51.176;6.738;2023-03-01T09:21:10;38.25;;;35.75;;
53267;SDS011;39156;51.176;6.738;2023-03-01T09:23:42;37.90;;;35.45;;
53267;SDS011;39156;51.176;6.738;2023-03-01T09:26:12;39.95;;;37.25;;
53267;SDS011;39156;51.176;6.738;2023-03-01T09:28:44;38.15;;;35.63;;
53267;SDS011;39156;51.176;6.738;2023-03-01T09:31:12;39.33;;;36.75;;
53267;SDS011;39156;51.176;6.738;2023-03-01T09:36:06;37.83;;;35.33;;
53267;SDS011;39156;51.176;6.738;2023-03-01T09:38:36;39.08;;;36.58;;
53267;SDS011;39156;51.176;6.738;2023-03-01T09:41:02;38.67;;;36.20;;
53267;SDS011;39156;51.176;6.738;2023-03-01T09:43:46;40.40;;;37.80;;
53267;SDS011;39156;51.176;6.738;2023-03-01T09:46:19;38.95;;;36.53;;
53267;SDS011;39156;51.176;6.738;2023-03-01T09:48:52;37.05;;;34.75;;
53267;SDS011;39156;51.176;6.738;2023-03-01T09:51:27;38.63;;;36.25;;
53267;SDS011;39156;51.176;6.738;2023-03-01T09:54:01;39.20;;;36.50;;
53267;SDS011;39156;51.176;6.738;2023-03-01T09:56:30;38.28;;;35.78;;
53267;SDS011;39156;51.176;6.738;2023-03-01T10:02:01;39.38;;;36.88;;
53267;SDS011;39156;51.176;6.738;2023-03-01T10:08:06;38.85;;;36.35;;
53267;SDS011;39156;51.176;6.738;2023-03-01T10:11:17;40.72;;;38.10;;
53267;SDS011;39156;51.176;6.738;2023-03-01T10:16:38;39.28;;;36.72;;
53267;SDS011;39156;51.176;6.738;2023-03-01T10:19:22;37.53;;;35.13;;
53267;SDS011;39156;51.176;6.738;2023-03-01T10:21:57;39.33;;;36.83;;
53267;SDS011;39156;51.176;6.738;2023-03-01T10:24:40;39.03;;;36.42;;
53267;SDS011;39156;51.176;6.738;2023-03-01T10:27:12;39.87;;;37.27;;
53267;SDS011;39156;51.176;6.738;2023-03-01T10:29:53;38.22;;;35.72;;
53267;SDS011;39156;51.176;6.738;2023-03-01T10:32:54;39.33;;;36.73;;
53267;SDS011;39156;51.176;6.738;2023-03-01T10:35:24;38.03;;;35.60;;
53267;SDS011;39156;51.176;6.738;2023-03-01T10:38:11;42.58;;;39.50;;
53267;SDS011;39156;51.176;6.738;2023-03-01T10:40:59;38.40;;;36.03;;
53267;SDS011;39156;51.176;6.738;2023-03-01T10:43:53;38.00;;;35.45;;
53267;SDS011;39156;51.176;6.738;2023-03-01T10:46:32;38.75;;;36.45;;
53267;SDS011;39156;51.176;6.738;2023-03-01T10:51:43;39.42;;;36.92;;
53267;SDS011;39156;51.176;6.738;2023-03-01T10:54:22;39.88;;;37.28;;
53267;SDS011;39156;51.176;6.738;2023-03-01T10:56:57;39.75;;;37.22;;
53267;SDS011;39156;51.176;6.738;2023-03-01T11:02:02;40.78;;;38.28;;
53267;SDS011;39156;51.176;6.738;2023-03-01T11:04:54;39.17;;;36.67;;
53267;SDS011;39156;51.176;6.738;2023-03-01T11:07:27;40.55;;;37.85;;
53267;SDS011;39156;51.176;6.738;2023-03-01T11:09:53;43.10;;;40.40;;
53267;SDS011;39156;51.176;6.738;2023-03-01T11:12:20;42.13;;;39.40;;
53267;SDS011;39156;51.176;6.738;2023-03-01T11:14:55;43.17;;;40.10;;
53267;SDS011;39156;51.176;6.738;2023-03-01T11:17:28;41.70;;;39.25;;
53267;SDS011;39156;51.176;6.738;2023-03-01T11:20:31;42.67;;;39.92;;
53267;SDS011;39156;51.176;6.738;2023-03-01T11:22:58;43.85;;;40.85;;
53267;SDS011;39156;51.176;6.738;2023-03-01T11:25:33;45.47;;;42.55;;
53267;SDS011;39156;51.176;6.738;2023-03-01T11:28:10;44.55;;;41.35;;
53267;SDS011;39156;51.176;6.738;2023-03-01T11:31:03;44.40;;;41.60;;
53267;SDS011;39156;51.176;6.738;2023-03-01T11:33:36;44.13;;;41.33;;
53267;SDS011;39156;51.176;6.738;2023-03-01T11:36:27;43.97;;;41.28;;
53267;SDS011;39156;51.176;6.738;2023-03-01T11:39:26;45.15;;;42.08;;
53267;SDS011;39156;51.176;6.738;2023-03-01T11:42:02;46.63;;;43.30;;
53267;SDS011;39156;51.176;6.738;2023-03-01T11:44:40;49.70;;;46.08;;
53267;SDS011;39156;51.176;6.738;2023-03-01T11:52:48;45.33;;;42.30;;
53267;SDS011;39156;51.176;6.738;2023-03-01T12:05:48;46.08;;;42.88;;
53267;SDS011;39156;51.176;6.738;2023-03-01T12:08:08;46.20;;;43.20;;
53267;SDS011;39156;51.176;6.738;2023-03-01T12:19:26;45.65;;;42.75;;
53267;SDS011;39156;51.176;6.738;2023-03-01T12:22:21;46.40;;;43.40;;
53267;SDS011;39156;51.176;6.738;2023-03-01T12:51:14;44.63;;;41.85;;
53267;SDS011;39156;51.176;6.738;2023-03-01T12:53:50;45.03;;;42.22;;
53267;SDS011;39156;51.176;6.738;2023-03-01T12:56:25;45.92;;;42.97;;
53267;SDS011;39156;51.176;6.738;2023-03-01T12:58:59;44.37;;;41.63;;
53267;SDS011;39156;51.176;6.738;2023-03-01T13:05:21;46.13;;;43.10;;
53267;SDS011;39156;51.176;6.738;2023-03-01T13:08:10;44.28;;;41.33;;
53267;SDS011;39156;51.176;6.738;2023-03-01T13:11:01;44.17;;;41.45;;
53267;SDS011;39156;51.176;6.738;2023-03-01T13:13:29;44.03;;;41.33;;
53267;SDS011;39156;51.176;6.738;2023-03-01T13:15:55;44.33;;;41.63;;
53267;SDS011;39156;51.176;6.738;2023-03-01T13:20:56;42.90;;;40.30;;
53267;SDS011;39156;51.176;6.738;2023-03-01T13:23:29;43.65;;;40.80;;
53267;SDS011;39156;51.176;6.738;2023-03-01T13:33:57;43.13;;;40.10;;
53267;SDS011;39156;51.176;6.738;2023-03-01T13:39:01;44.93;;;41.77;;
53267;SDS011;39156;51.176;6.738;2023-03-01T13:41:52;44.45;;;41.70;;
53267;SDS011;39156;51.176;6.738;2023-03-01T13:49:36;44.13;;;41.28;;
53267;SDS011;39156;51.176;6.738;2023-03-01T13:52:26;43.80;;;41.05;;
53267;SDS011;39156;51.176;6.738;2023-03-01T13:55:17;44.60;;;41.97;;
53267;SDS011;39156;51.176;6.738;2023-03-01T13:58:05;44.05;;;41.15;;
53267;SDS011;39156;51.176;6.738;2023-03-01T14:00:44;45.03;;;42.30;;
53267;SDS011;39156;51.176;6.738;2023-03-01T14:03:11;44.00;;;41.30;;
53267;SDS011;39156;51.176;6.738;2023-03-01T14:05:37;42.75;;;39.92;;
53267;SDS011;39156;51.176;6.738;2023-03-01T14:08:28;45.40;;;42.45;;
53267;SDS011;39156;51.176;6.738;2023-03-01T14:14:41;43.42;;;40.67;;
53267;SDS011;39156;51.176;6.738;2023-03-01T14:20:32;43.38;;;40.65;;
53267;SDS011;39156;51.176;6.738;2023-03-01T14:23:12;46.03;;;42.95;;
53267;SDS011;39156;51.176;6.738;2023-03-01T14:29:36;42.55;;;39.85;;
53267;SDS011;39156;51.176;6.738;2023-03-01T14:34:53;42.85;;;40.00;;
53267;SDS011;39156;51.176;6.738;2023-03-01T14:38:01;45.33;;;42.38;;
53267;SDS011;39156;51.176;6.738;2023-03-01T14:40:34;44.97;;;41.95;;
53267;SDS011;39156;51.176;6.738;2023-03-01T14:43:08;46.17;;;43.13;;
53267;SDS011;39156;51.176;6.738;2023-03-01T14:45:38;44.20;;;41.35;;
53267;SDS011;39156;51.176;6.738;2023-03-01T14:48:05;42.42;;;39.92;;
53267;SDS011;39156;51.176;6.738;2023-03-01T14:50:35;45.47;;;42.08;;
53267;SDS011;39156;51.176;6.738;2023-03-01T14:53:18;44.80;;;42.03;;
53267;SDS011;39156;51.176;6.738;2023-03-01T14:55:53;44.63;;;41.83;;
53267;SDS011;39156;51.176;6.738;2023-03-01T14:58:23;44.00;;;41.10;;
53267;SDS011;39156;51.176;6.738;2023-03-01T15:00:55;46.33;;;43.42;;
53267;SDS011;39156;51.176;6.738;2023-03-01T15:06:04;44.15;;;41.35;;
53267;SDS011;39156;51.176;6.738;2023-03-01T15:08:32;45.08;;;42.28;;
53267;SDS011;39156;51.176;6.738;2023-03-01T15:13:50;46.15;;;43.28;;
53267;SDS011;39156;51.176;6.738;2023-03-01T15:18:53;44.25;;;41.50;;
53267;SDS011;39156;51.176;6.738;2023-03-01T15:24:05;44.92;;;42.00;;
53267;SDS011;39156;51.176;6.738;2023-03-01T15:27:13;43.53;;;40.70;;
53267;SDS011;39156;51.176;6.738;2023-03-01T15:29:32;44.35;;;41.50;;
53267;SDS011;39156;51.176;6.738;2023-03-01T15:32:06;43.90;;;41.20;;
53267;SDS011;39156;51.176;6.738;2023-03-01T15:34:57;45.88;;;42.97;;
53267;SDS011;39156;51.176;6.738;2023-03-01T15:40:20;44.30;;;41.35;;
53267;SDS011;39156;51.176;6.738;2023-03-01T15:43:01;44.78;;;42.08;;
53267;SDS011;39156;51.176;6.738;2023-03-01T15:45:30;43.22;;;40.65;;
53267;SDS011;39156;51.176;6.738;2023-03-01T15:48:02;44.13;;;41.33;;
53267;SDS011;39156;51.176;6.738;2023-03-01T15:50:38;43.15;;;40.42;;
53267;SDS011;39156;51.176;6.738;2023-03-01T15:53:06;45.47;;;42.70;;
53267;SDS011;39156;51.176;6.738;2023-03-01T15:55:37;42.15;;;39.58;;
53267;SDS011;39156;51.176;6.738;2023-03-01T15:58:04;43.90;;;41.17;;
53267;SDS011;39156;51.176;6.738;2023-03-01T16:00:46;42.78;;;40.08;;
53267;SDS011;39156;51.176;6.738;2023-03-01T16:03:14;44.55;;;41.85;;
53267;SDS011;39156;51.176;6.738;2023-03-01T16:05:46;42.65;;;40.10;;
53267;SDS011;39156;51.176;6.738;2023-03-01T16:10:39;45.20;;;42.40;;
53267;SDS011;39156;51.176;6.738;2023-03-01T16:13:08;43.55;;;40.75;;
53267;SDS011;39156;51.176;6.738;2023-03-01T16:15:36;43.92;;;41.15;;
53267;SDS011;39156;51.176;6.738;2023-03-01T16:18:02;42.30;;;39.80;;
53267;SDS011;39156;51.176;6.738;2023-03-01T16:20:30;44.88;;;42.10;;
53267;SDS011;39156;51.176;6.738;2023-03-01T16:23:03;43.10;;;40.10;;
53267;SDS011;39156;51.176;6.738;2023-03-01T16:25:32;43.88;;;41.13;;
53267;SDS011;39156;51.176;6.738;2023-03-01T16:27:58;41.30;;;38.90;;
53267;SDS011;39156;51.176;6.738;2023-03-01T16:32:51;44.17;;;41.17;;
53267;SDS011;39156;51.176;6.738;2023-03-01T16:35:18;42.83;;;40.22;;
53267;SDS011;39156;51.176;6.738;2023-03-01T16:37:46;43.45;;;40.85;;
53267;SDS011;39156;51.176;6.738;2023-03-01T16:40:19;45.83;;;43.00;;
53267;SDS011;39156;51.176;6.738;2023-03-01T16:42:53;42.53;;;39.95;;
53267;SDS011;39156;51.176;6.738;2023-03-01T16:45:24;42.42;;;39.88;;
53267;SDS011;39156;51.176;6.738;2023-03-01T16:47:51;44.47;;;41.10;;
53267;SDS011;39156;51.176;6.738;2023-03-01T16:50:17;44.05;;;41.45;;
53267;SDS011;39156;51.176;6.738;2023-03-01T16:52:43;42.75;;;40.22;;
53267;SDS011;39156;51.176;6.738;2023-03-01T16:55:09;43.65;;;40.83;;
53267;SDS011;39156;51.176;6.738;2023-03-01T16:57:36;43.58;;;40.33;;
53267;SDS011;39156;51.176;6.738;2023-03-01T17:00:04;44.25;;;41.47;;
53267;SDS011;39156;51.176;6.738;2023-03-01T17:02:32;44.88;;;42.03;;
53267;SDS011;39156;51.176;6.738;2023-03-01T17:07:25;43.75;;;41.08;;
53267;SDS011;39156;51.176;6.738;2023-03-01T17:09:53;45.22;;;42.08;;
53267;SDS011;39156;51.176;6.738;2023-03-01T17:14:45;45.33;;;42.55;;
53267;SDS011;39156;51.176;6.738;2023-03-01T17:17:10;44.78;;;41.67;;
53267;SDS011;39156;51.176;6.738;2023-03-01T17:19:37;43.63;;;40.92;;
53267;SDS011;39156;51.176;6.738;2023-03-01T17:22:08;46.72;;;43.92;;